Main page
METAR-TAF:

METAR-TAF

Airports :

Naval Station Rota

Rota, Spain

latitude: 36-39N, longitude: 006-21W, elevation: 26 m

Current weather observation

The report was made 42 minutes ago, at 07:30 UTC
Wind 5 kt from the Northeast, varying between North/Northeast and East
Temperature 20°C
Humidity 49%
Pressure 1020 hPa
Visibility 10 km or more
no clouds below 1500 m and no cumulonimbus

METAR: LERT 180730Z 05005KT 020V090 CAVOK 20/09 Q1020 NOSIG

Time: 10:12 (08:12 UTC)

Forecast

The report was made 6 hours and 12 minutes ago, at 02:00 UTC
Forecast valid from 18 at 03 UTC to 19 at 03 UTC
Wind 8 kt from the North
Visibility 10 km or more
no clouds below 1500 m and no cumulonimbus
Becoming
from 18 at 10 UTC to 18 at 12 UTC
Wind 10 kt from the West/Northwest

TAF: LERT 180200Z 1803/1903 36008KT CAVOK TX29/1813Z TN17/1805Z BECMG 1810/1812 29010KT

Weather observations and forecasts of more than 4000 airports (METAR and TAF reports).

The available stations are represented by yellow and red dots on the map.

Hover mouse over dot to see the name of the station.

Then click to see weather observations and forecasts.

To change the map : click on the green buttons with a black cross to zoom in, on the green button with a dash to zoom out, or on the green arrows for adjacent maps.


METAR-TAF: